Pagrindinis puslapis
METAR-TAF:

METAR-TAF

Oro uostai :

Oskemenas, Kazachija

platuma: 50-02-10N, ilguma: 082-29-39E, Aukštis: 286 m

Dabartinis oras

Ataskaita buvo paskelbta 13 minutes, ne 13:30 UTC
Vėjas 8 kt iš Šiaurės/Šiaurės Vakarų
Temperatūra 22°C
Drėgmė 27%
Slėgis 1012 hPa
Matomumas 10 km arba daugiau

METAR: UASK 291330Z 33004MPS 9999 NSC 22/02 Q1012 R30/090060 NOSIG RMK QFE733/0978

Laikas: 19:43 (13:43 UTC)

Prognozė

Ataskaita buvo paskelbta 2 valandos ir 42 minutes, ne 11:01 UTC
Prognozė galioja nuo 29 metu 12 UTC su 29 metu 21 UTC
Vėjas 12 kt iš Šiaurės Vakarų
Matomumas 10 km arba daugiau
Laikinai
nuo 29 metu 12 UTC su 29 metu 15 UTC
Vėjas 14 kt iš Šiaurės/Šiaurės Vakarų su gūsio iki 23 kt
Mažai debesys ne aukštis 5000 ft
Laikinai
nuo 29 metu 15 UTC su 29 metu 21 UTC
Vėjas 8 kt iš Vakarų/Šiaurės Vakarų

TAF: UASK 291101Z 2912/2921 32006MPS 9999 NSC TEMPO 2912/2915 34007G12MPS FEW050 TEMPO 2915/2921 30004MPS

Orai ataskaitas ir orų prognozės (METAR, TAF).

turimą stotys yra geltonos ir raudonos taškus žemėlapyje.

Perkelti pele per norėdami pamatyti stoties vardą.

Tada spustelėkite, norėdami matyti oro stebėjimo ir prognozės.

Norėdami pakeisti žemėlapį: spustelėkite ant žalios mygtukų su juodo kryžiaus žemyn,; žalią mygtuką su brūkšneliu, jei norite nutolinti; arba žalių rodyklių gretimoms žemėlapius.


METAR-TAF: